createdAt,value
2018-06-27T00:04:54.930Z,101738.00
2018-06-27T00:09:58.727Z,101741.00
2018-06-27T00:15:02.525Z,101737.00
2018-06-27T00:20:06.677Z,101737.00
2018-06-27T00:25:10.465Z,101736.00
2018-06-27T00:30:14.276Z,101732.00
2018-06-27T00:35:18.314Z,101730.00
2018-06-27T00:40:22.191Z,101725.00
2018-06-27T00:45:26.037Z,101723.00
2018-06-27T00:50:29.840Z,101718.00
2018-06-27T00:55:33.889Z,101717.00
2018-06-27T01:00:37.693Z,101713.00
2018-06-27T01:05:41.505Z,101711.00
2018-06-27T01:10:45.339Z,101710.00
2018-06-27T01:15:49.144Z,101711.00
2018-06-27T01:20:54.058Z,101721.00
2018-06-27T01:25:57.878Z,101724.00
2018-06-27T01:31:01.925Z,101723.00
2018-06-27T01:36:06.275Z,101735.00
2018-06-27T01:41:10.113Z,101739.00
2018-06-27T01:46:13.917Z,101742.00
2018-06-27T01:51:17.872Z,101740.00
2018-06-27T01:56:22.298Z,101745.00
2018-06-27T02:01:26.544Z,101745.00
2018-06-27T02:06:30.336Z,101764.00
2018-06-27T02:11:34.152Z,101758.00
2018-06-27T02:16:37.986Z,101754.00
2018-06-27T02:21:41.792Z,101751.00
2018-06-27T02:26:45.608Z,101747.00
2018-06-27T02:31:49.393Z,101752.00
2018-06-27T02:36:53.192Z,101753.00
2018-06-27T02:41:56.993Z,101757.00
2018-06-27T02:47:00.892Z,101759.00
2018-06-27T02:52:04.941Z,101767.00
2018-06-27T02:57:08.981Z,101773.00
2018-06-27T03:02:12.777Z,101771.00
2018-06-27T03:07:16.863Z,101770.00
2018-06-27T03:12:20.888Z,101769.00
2018-06-27T03:17:25.034Z,101775.00
2018-06-27T03:22:28.837Z,101773.00
2018-06-27T03:27:32.674Z,101783.00
2018-06-27T03:32:36.472Z,101775.00
2018-06-27T03:37:40.504Z,101772.00
2018-06-27T03:42:44.537Z,101774.00
2018-06-27T03:47:48.626Z,101774.00
2018-06-27T03:52:52.654Z,101779.00
2018-06-27T03:57:56.798Z,101781.00
2018-06-27T04:03:00.887Z,101786.00
2018-06-27T04:08:05.070Z,101792.00
2018-06-27T04:13:08.953Z,101803.00
2018-06-27T04:18:12.728Z,101807.00
2018-06-27T04:23:16.842Z,101809.00
2018-06-27T04:28:21.165Z,101811.00
2018-06-27T04:33:25.287Z,101813.00
2018-06-27T04:38:29.111Z,101816.00
2018-06-27T04:43:32.941Z,101817.00
2018-06-27T04:48:36.825Z,101819.00
2018-06-27T04:53:40.696Z,101809.00
2018-06-27T04:58:44.536Z,101812.00
2018-06-27T05:03:48.700Z,101816.00
2018-06-27T05:08:52.570Z,101814.00
2018-06-27T05:13:56.402Z,101814.00
2018-06-27T05:19:00.489Z,101808.00
2018-06-27T05:24:04.648Z,101809.00
2018-06-27T05:29:08.745Z,101810.00
2018-06-27T05:34:12.854Z,101805.00
2018-06-27T05:39:17.001Z,101816.00
2018-06-27T05:44:20.898Z,101819.00
2018-06-27T05:49:24.758Z,101820.00
2018-06-27T05:54:28.679Z,101824.00
2018-06-27T05:59:32.499Z,101822.00
2018-06-27T06:04:36.341Z,101817.00
2018-06-27T06:09:40.245Z,101811.00
2018-06-27T06:14:44.124Z,101807.00
2018-06-27T06:19:47.959Z,101810.00
2018-06-27T06:24:51.773Z,101807.00
2018-06-27T06:29:55.622Z,101813.00
2018-06-27T06:34:59.501Z,101811.00
2018-06-27T06:40:04.575Z,101811.00
2018-06-27T06:45:08.654Z,101807.00
2018-06-27T06:50:12.750Z,101809.00
2018-06-27T06:55:16.581Z,101811.00
2018-06-27T07:00:20.485Z,101817.00
2018-06-27T07:05:24.332Z,101816.00
2018-06-27T07:10:28.402Z,101819.00
2018-06-27T07:15:32.237Z,101816.00
2018-06-27T07:20:36.108Z,101817.00
2018-06-27T07:25:40.090Z,101815.00
2018-06-27T07:30:43.934Z,101818.00
2018-06-27T07:35:47.765Z,101810.00
2018-06-27T07:40:51.842Z,101808.00
2018-06-27T07:45:55.759Z,101800.00
2018-06-27T07:50:59.861Z,101795.00
2018-06-27T07:56:03.944Z,101801.00
2018-06-27T08:01:07.784Z,101795.00
2018-06-27T08:06:11.929Z,101787.00
2018-06-27T08:11:16.019Z,101794.00
2018-06-27T08:16:19.884Z,101799.00
2018-06-27T08:21:23.970Z,101789.00
2018-06-27T08:26:27.981Z,101788.00
2018-06-27T08:31:31.925Z,101787.00
2018-06-27T08:36:35.787Z,101793.00
2018-06-27T08:41:40.392Z,101788.00
2018-06-27T08:46:44.219Z,101784.00
2018-06-27T08:51:48.064Z,101771.00
2018-06-27T08:56:52.586Z,101771.00
2018-06-27T09:01:56.679Z,101771.00
2018-06-27T09:07:00.506Z,101767.00
2018-06-27T09:12:04.592Z,101759.00
2018-06-27T09:17:08.453Z,101750.00
2018-06-27T09:22:12.310Z,101756.00
2018-06-27T09:27:16.395Z,101754.00
2018-06-27T09:32:20.259Z,101746.00
2018-06-27T09:37:24.342Z,101753.00
2018-06-27T09:42:28.174Z,101742.00
2018-06-27T09:47:32.273Z,101735.00
2018-06-27T09:52:36.386Z,101729.00
2018-06-27T09:57:40.345Z,101718.00
2018-06-27T10:02:44.469Z,101705.00
2018-06-27T10:07:48.455Z,101700.00
2018-06-27T10:12:52.778Z,101692.00
2018-06-27T10:17:57.077Z,101681.00
2018-06-27T10:23:01.198Z,101676.00
2018-06-27T10:28:05.356Z,101668.00
2018-06-27T10:33:09.498Z,101659.00
2018-06-27T10:38:13.651Z,101652.00
2018-06-27T10:43:17.541Z,101652.00
2018-06-27T10:48:21.630Z,101643.00
2018-06-27T10:53:25.453Z,101634.00
2018-06-27T10:58:29.799Z,101625.00
2018-06-27T11:03:33.637Z,101620.00
2018-06-27T11:08:37.462Z,101614.00
2018-06-27T11:13:41.325Z,101603.00
2018-06-27T11:18:45.210Z,101599.00
2018-06-27T11:23:49.038Z,101596.00
2018-06-27T11:28:53.186Z,101589.00
2018-06-27T11:33:57.059Z,101584.00
2018-06-27T11:39:00.878Z,101581.00
2018-06-27T11:44:04.756Z,101576.00
2018-06-27T11:49:08.617Z,101569.00
2018-06-27T11:54:12.702Z,101557.00
2018-06-27T11:59:16.901Z,101551.00
2018-06-27T12:04:20.978Z,101544.00
2018-06-27T12:09:25.191Z,101542.00
2018-06-27T12:14:29.041Z,101540.00
2018-06-27T12:19:32.891Z,101538.00
2018-06-27T12:24:37.052Z,101543.00
2018-06-27T12:29:40.909Z,101537.00
2018-06-27T12:34:44.750Z,101536.00
2018-06-27T12:39:48.835Z,101524.00
2018-06-27T12:44:53.903Z,101519.00
2018-06-27T12:49:57.805Z,101531.00
2018-06-27T12:55:03.343Z,101524.00
2018-06-27T13:00:09.206Z,101517.00
2018-06-27T13:05:13.022Z,101521.00
2018-06-27T13:10:16.873Z,101520.00
2018-06-27T13:15:20.932Z,101513.00
2018-06-27T13:20:25.035Z,101499.00
2018-06-27T13:25:29.129Z,101505.00
2018-06-27T13:30:33.803Z,101508.00
2018-06-27T13:35:37.621Z,101490.00
2018-06-27T13:40:41.437Z,101488.00
2018-06-27T13:45:45.533Z,101492.00
2018-06-27T13:50:49.366Z,101494.00
2018-06-27T13:55:53.193Z,101492.00
2018-06-27T14:00:57.342Z,101485.00
2018-06-27T14:06:01.462Z,101488.00
2018-06-27T14:11:05.302Z,101485.00
2018-06-27T14:16:09.188Z,101473.00
2018-06-27T14:21:13.306Z,101472.00
2018-06-27T14:26:17.386Z,101465.00
2018-06-27T14:31:21.495Z,101458.00
2018-06-27T14:36:25.416Z,101454.00
2018-06-27T14:41:29.319Z,101464.00
2018-06-27T14:46:33.285Z,101456.00
2018-06-27T14:51:37.083Z,101448.00
2018-06-27T14:56:40.911Z,101440.00
2018-06-27T15:01:44.822Z,101441.00
2018-06-27T15:06:48.661Z,101439.00
2018-06-27T15:11:52.529Z,101436.00
2018-06-27T15:16:56.614Z,101435.00
2018-06-27T15:22:00.474Z,101423.00
2018-06-27T15:27:04.363Z,101421.00
2018-06-27T15:32:08.229Z,101416.00
2018-06-27T15:37:12.145Z,101414.00
2018-06-27T15:42:16.327Z,101415.00
2018-06-27T15:47:20.160Z,101419.00
2018-06-27T15:52:24.347Z,101415.00
2018-06-27T15:57:28.170Z,101418.00
2018-06-27T16:02:32.003Z,101409.00
2018-06-27T16:07:36.109Z,101405.00
2018-06-27T16:12:39.937Z,101401.00
2018-06-27T16:17:43.761Z,101409.00
2018-06-27T16:22:47.590Z,101409.00
2018-06-27T16:27:51.426Z,101409.00
2018-06-27T16:32:55.318Z,101411.00
2018-06-27T16:37:59.157Z,101410.00
2018-06-27T16:43:03.023Z,101420.00
2018-06-27T16:48:06.889Z,101420.00
2018-06-27T16:53:10.733Z,101421.00
2018-06-27T16:58:14.701Z,101411.00
2018-06-27T17:03:18.774Z,101422.00
2018-06-27T17:08:22.683Z,101420.00
2018-06-27T17:13:26.728Z,101422.00
2018-06-27T17:18:30.827Z,101420.00
2018-06-27T17:23:34.905Z,101422.00
2018-06-27T17:28:39.007Z,101426.00
2018-06-27T17:33:42.929Z,101423.00
2018-06-27T17:38:47.061Z,101434.00
2018-06-27T17:43:51.741Z,101437.00
2018-06-27T17:48:55.559Z,101435.00
2018-06-27T17:53:59.399Z,101445.00
2018-06-27T17:59:03.462Z,101453.00
2018-06-27T18:04:07.460Z,101462.00
2018-06-27T18:09:11.305Z,101461.00
2018-06-27T18:14:15.397Z,101466.00
2018-06-27T18:19:19.251Z,101465.00
2018-06-27T18:24:23.068Z,101472.00
2018-06-27T18:29:26.986Z,101469.00
2018-06-27T18:34:30.838Z,101465.00
2018-06-27T18:39:34.685Z,101466.00
2018-06-27T18:44:38.526Z,101472.00
2018-06-27T18:49:42.372Z,101473.00
2018-06-27T18:54:46.483Z,101482.00
2018-06-27T18:59:50.308Z,101481.00
2018-06-27T19:04:54.490Z,101482.00
2018-06-27T19:09:58.344Z,101485.00
2018-06-27T19:15:02.442Z,101489.00
2018-06-27T19:20:06.379Z,101489.00
2018-06-27T19:25:10.242Z,101489.00
2018-06-27T19:30:14.189Z,101496.00
2018-06-27T19:35:18.042Z,101508.00
2018-06-27T19:40:22.303Z,101507.00
2018-06-27T19:45:26.237Z,101518.00
2018-06-27T19:50:30.095Z,101525.00
2018-06-27T19:55:34.563Z,101536.00
2018-06-27T20:00:38.458Z,101540.00
2018-06-27T20:05:43.501Z,101538.00
2018-06-27T20:10:47.791Z,101549.00
2018-06-27T20:15:51.650Z,101557.00
2018-06-27T20:20:55.538Z,101564.00
2018-06-27T20:26:00.495Z,101562.00
2018-06-27T20:31:05.425Z,101566.00
2018-06-27T20:36:09.307Z,101568.00
2018-06-27T20:41:13.142Z,101569.00
2018-06-27T20:46:16.982Z,101566.00
2018-06-27T20:51:20.812Z,101571.00
2018-06-27T20:56:25.546Z,101570.00
2018-06-27T21:01:29.390Z,101573.00
2018-06-27T21:06:33.226Z,101577.00
2018-06-27T21:11:37.496Z,101579.00
2018-06-27T21:16:41.253Z,101578.00
2018-06-27T21:21:45.146Z,101584.00
2018-06-27T21:26:49.271Z,101584.00
2018-06-27T21:31:53.230Z,101589.00
2018-06-27T21:36:57.058Z,101588.00
2018-06-27T21:42:00.902Z,101596.00
2018-06-27T21:47:04.852Z,101602.00
2018-06-27T21:52:08.669Z,101612.00
2018-06-27T21:57:12.503Z,101616.00
2018-06-27T22:02:16.329Z,101617.00
2018-06-27T22:07:20.547Z,101619.00
2018-06-27T22:12:24.602Z,101630.00
2018-06-27T22:17:28.754Z,101633.00
2018-06-27T22:22:32.559Z,101627.00
2018-06-27T22:27:36.469Z,101631.00
2018-06-27T22:32:40.594Z,101631.00
2018-06-27T22:37:44.434Z,101633.00
2018-06-27T22:42:48.556Z,101627.00
2018-06-27T22:47:52.385Z,101622.00
2018-06-27T22:52:56.225Z,101628.00
2018-06-27T22:58:00.322Z,101626.00
2018-06-27T23:03:04.227Z,101629.00
2018-06-27T23:08:08.061Z,101629.00
2018-06-27T23:13:11.886Z,101632.00
2018-06-27T23:18:15.718Z,101631.00
2018-06-27T23:23:19.565Z,101633.00
2018-06-27T23:28:23.443Z,101636.00
2018-06-27T23:33:27.514Z,101633.00
2018-06-27T23:38:31.613Z,101637.00
2018-06-27T23:43:35.678Z,101639.00
2018-06-27T23:48:39.505Z,101629.00
2018-06-27T23:53:43.362Z,101624.00
2018-06-27T23:58:47.177Z,101626.00
